Time;durP1;ratioP1;P1;durP2;ratioP2;P2;SDS_P1;SDS_P2;PMS_P1;PMS_P2;Temp;Humidity;BMP_temperature;BMP_pressure;BME280_temperature;BME280_humidity;BME280_pressure;Samples;Min_cycle;Max_cycle;Signal;HPM_P1;HPM_P2
2022/09/30 00:00:48;;;;;;;1.52;1.40;;;;;;;;;;5029609;28;20480;-85
2022/09/30 00:03:14;;;;;;;6.97;1.90;;;;;;;;;;5050132;28;20048;-84
2022/09/30 00:05:43;;;;;;;1.63;1.45;;;;;;;;;;5057958;28;20051;-85
2022/09/30 00:08:09;;;;;;;1.77;1.67;;;;;;;;;;5030020;28;20187;-85
2022/09/30 00:10:35;;;;;;;1.92;1.60;;;;;;;;;;5043995;28;20123;-85
2022/09/30 00:13:01;;;;;;;1.70;1.60;;;;;;;;;;5043263;28;20041;-85
2022/09/30 00:15:27;;;;;;;1.98;1.70;;;;;;;;;;5028082;28;20106;-85
2022/09/30 00:17:53;;;;;;;3.40;1.90;;;;;;;;;;5026032;28;20045;-85
2022/09/30 00:20:19;;;;;;;2.72;1.80;;;;;;;;;;5026737;28;20048;-85
2022/09/30 00:22:45;;;;;;;2.13;1.70;;;;;;;;;;5041063;28;20029;-84
2022/09/30 00:25:11;;;;;;;1.80;1.70;;;;;;;;;;5030731;28;20388;-85
2022/09/30 00:27:37;;;;;;;1.55;1.45;;;;;;;;;;5025016;28;20056;-85
2022/09/30 00:30:03;;;;;;;1.50;1.40;;;;;;;;;;5049127;28;20037;-85
2022/09/30 00:32:29;;;;;;;2.28;1.90;;;;;;;;;;5024549;28;20126;-84
2022/09/30 00:34:58;;;;;;;2.42;1.70;;;;;;;;;;5023793;28;20091;-85
2022/09/30 00:37:24;;;;;;;2.03;1.83;;;;;;;;;;5039658;28;20385;-85
2022/09/30 00:39:50;;;;;;;1.80;1.70;;;;;;;;;;5034999;28;20143;-85
2022/09/30 00:42:18;;;;;;;2.28;1.90;;;;;;;;;;5050813;28;20953;-85
2022/09/30 00:44:46;;;;;;;2.10;1.90;;;;;;;;;;5012063;28;20060;-85
2022/09/30 00:47:22;;;;;;;1.80;1.70;;;;;;;;;;5016591;28;20048;-85
2022/09/30 00:49:48;;;;;;;2.17;1.90;;;;;;;;;;5013092;28;20049;-85
2022/09/30 00:52:14;;;;;;;2.30;1.85;;;;;;;;;;5015381;28;20045;-86
2022/09/30 00:54:40;;;;;;;2.05;1.70;;;;;;;;;;5006879;28;20056;-85
2022/09/30 00:57:12;;;;;;;2.03;1.80;;;;;;;;;;5009859;28;20053;-85
2022/09/30 00:59:44;;;;;;;2.85;1.92;;;;;;;;;;5017624;28;20045;-85
2022/09/30 01:02:13;;;;;;;2.38;1.90;;;;;;;;;;5005933;28;20519;-84
2022/09/30 01:04:40;;;;;;;2.10;1.90;;;;;;;;;;5013548;28;20115;-85
2022/09/30 01:07:07;;;;;;;2.00;1.90;;;;;;;;;;5029384;28;20045;-85
2022/09/30 01:09:34;;;;;;;3.30;2.00;;;;;;;;;;5002360;28;20041;-85
2022/09/30 01:12:03;;;;;;;2.80;2.30;;;;;;;;;;5027573;28;20056;-85
2022/09/30 01:14:30;;;;;;;2.78;2.10;;;;;;;;;;5005391;28;20093;-85
2022/09/30 01:17:02;;;;;;;1.98;1.80;;;;;;;;;;5025982;28;20045;-85
2022/09/30 01:19:46;;;;;;;3.20;2.03;;;;;;;;;;5025367;28;20064;-85
2022/09/30 01:22:22;;;;;;;2.50;2.30;;;;;;;;;;5012116;28;20132;-85
2022/09/30 01:25:06;;;;;;;2.05;1.95;;;;;;;;;;5025308;28;20446;-85
2022/09/30 01:27:45;;;;;;;2.20;2.00;;;;;;;;;;5012710;28;20046;-85
2022/09/30 01:30:11;;;;;;;2.33;2.10;;;;;;;;;;5031171;28;20106;-84
2022/09/30 01:32:43;;;;;;;2.47;2.28;;;;;;;;;;5008696;28;20077;-85
2022/09/30 01:35:18;;;;;;;3.58;2.15;;;;;;;;;;5028350;28;20055;-85
2022/09/30 01:37:50;;;;;;;2.80;2.60;;;;;;;;;;5030896;28;20041;-85
2022/09/30 01:40:24;;;;;;;2.80;2.60;;;;;;;;;;5022643;28;20042;-85
2022/09/30 01:42:56;;;;;;;2.53;2.33;;;;;;;;;;5013593;28;20057;-85
2022/09/30 01:45:29;;;;;;;2.20;2.05;;;;;;;;;;5048579;28;20477;-85
2022/09/30 01:47:58;;;;;;;2.40;2.20;;;;;;;;;;5039998;28;20041;-85
2022/09/30 01:50:36;;;;;;;1.95;1.80;;;;;;;;;;5031556;28;20064;-85
2022/09/30 01:53:17;;;;;;;3.45;2.00;;;;;;;;;;5032428;28;20044;-85
2022/09/30 01:56:02;;;;;;;2.30;2.10;;;;;;;;;;5052834;28;20187;-84
2022/09/30 01:58:31;;;;;;;2.42;2.22;;;;;;;;;;5037206;28;20171;-85
2022/09/30 02:01:00;;;;;;;2.30;1.80;;;;;;;;;;5029110;28;20103;-84
2022/09/30 02:03:26;;;;;;;1.85;1.75;;;;;;;;;;5032416;28;20077;-84
2022/09/30 02:06:07;;;;;;;1.80;1.70;;;;;;;;;;5024330;28;20063;-84
2022/09/30 02:08:45;;;;;;;1.60;1.58;;;;;;;;;;5034969;28;20388;-84
2022/09/30 02:11:13;;;;;;;2.55;1.70;;;;;;;;;;5022841;28;20132;-84
2022/09/30 02:13:43;;;;;;;2.08;1.70;;;;;;;;;;5029811;28;20052;-84
2022/09/30 02:16:11;;;;;;;1.65;1.55;;;;;;;;;;5050625;28;20102;-84
2022/09/30 02:18:57;;;;;;;2.75;2.00;;;;;;;;;;5029655;28;20041;-84
2022/09/30 02:21:27;;;;;;;1.90;1.80;;;;;;;;;;5015105;28;20048;-84
2022/09/30 02:23:55;;;;;;;1.80;1.70;;;;;;;;;;5049402;28;20084;-85
2022/09/30 02:26:23;;;;;;;1.92;1.80;;;;;;;;;;5021213;28;20049;-85
2022/09/30 02:29:00;;;;;;;1.90;1.80;;;;;;;;;;5024779;28;20045;-85
2022/09/30 02:31:26;;;;;;;2.00;1.90;;;;;;;;;;5048096;28;20049;-84
2022/09/30 02:33:56;;;;;;;1.95;1.80;;;;;;;;;;5030320;28;20052;-84
2022/09/30 02:36:29;;;;;;;2.00;1.90;;;;;;;;;;5050592;28;20099;-84
2022/09/30 02:39:07;;;;;;;2.10;1.90;;;;;;;;;;5046082;28;20511;-84
2022/09/30 02:41:37;;;;;;;2.13;2.00;;;;;;;;;;5039302;28;20069;-84
2022/09/30 02:44:03;;;;;;;1.98;1.88;;;;;;;;;;5039701;28;20060;-85
2022/09/30 02:46:38;;;;;;;2.08;1.90;;;;;;;;;;5044756;28;20045;-84
2022/09/30 02:49:24;;;;;;;4.13;1.90;;;;;;;;;;5031864;28;20550;-84
2022/09/30 02:52:07;;;;;;;2.50;2.30;;;;;;;;;;5016201;28;20053;-83
2022/09/30 02:54:50;;;;;;;2.13;1.98;;;;;;;;;;5043232;28;20041;-84
2022/09/30 02:57:26;;;;;;;6.68;2.10;;;;;;;;;;5046246;28;20412;-84
2022/09/30 02:59:52;;;;;;;1.83;1.73;;;;;;;;;;5027039;28;20064;-84
2022/09/30 03:02:20;;;;;;;2.17;2.08;;;;;;;;;;5040291;28;20040;-84
2022/09/30 03:04:46;;;;;;;2.55;2.20;;;;;;;;;;5047620;28;20107;-84
2022/09/30 03:07:12;;;;;;;2.03;1.90;;;;;;;;;;5048368;28;20037;-84
2022/09/30 03:09:38;;;;;;;2.33;2.13;;;;;;;;;;5048059;28;20045;-84
2022/09/30 03:12:16;;;;;;;2.03;1.90;;;;;;;;;;5043607;28;20381;-84
2022/09/30 03:14:51;;;;;;;2.20;2.10;;;;;;;;;;5046432;28;20051;-84
2022/09/30 03:17:20;;;;;;;2.40;1.90;;;;;;;;;;5044278;28;20045;-84
2022/09/30 03:19:46;;;;;;;2.63;2.20;;;;;;;;;;5049710;28;20045;-84
2022/09/30 03:22:31;;;;;;;2.30;2.00;;;;;;;;;;5029775;28;20052;-84
2022/09/30 03:25:03;;;;;;;2.28;2.08;;;;;;;;;;5046303;28;20384;-83
2022/09/30 03:27:33;;;;;;;2.78;2.30;;;;;;;;;;5050129;28;20048;-83
2022/09/30 03:30:11;;;;;;;2.20;1.90;;;;;;;;;;5031239;28;20144;-84
2022/09/30 03:32:48;;;;;;;2.30;2.10;;;;;;;;;;5028081;28;21205;-82
2022/09/30 03:35:32;;;;;;;2.67;2.10;;;;;;;;;;5044849;28;20040;-84
2022/09/30 03:38:05;;;;;;;1.92;1.83;;;;;;;;;;5025680;28;20079;-83
2022/09/30 03:40:31;;;;;;;3.90;2.58;;;;;;;;;;5043877;28;20041;-84
2022/09/30 03:42:59;;;;;;;3.25;2.70;;;;;;;;;;5028201;28;20057;-83
2022/09/30 03:45:30;;;;;;;2.88;2.67;;;;;;;;;;5030135;28;20049;-84
2022/09/30 03:47:58;;;;;;;3.47;2.75;;;;;;;;;;5030703;28;20057;-84
2022/09/30 03:50:25;;;;;;;2.75;2.55;;;;;;;;;;5030116;28;20044;-83
2022/09/30 03:52:51;;;;;;;2.80;2.53;;;;;;;;;;5038374;28;20120;-83
2022/09/30 03:55:21;;;;;;;2.53;2.33;;;;;;;;;;5031090;28;20506;-83
2022/09/30 03:57:48;;;;;;;2.40;2.20;;;;;;;;;;5037077;28;20087;-84
2022/09/30 04:00:14;;;;;;;2.60;2.40;;;;;;;;;;5028303;28;20507;-84
2022/09/30 04:02:41;;;;;;;2.55;2.35;;;;;;;;;;5031016;28;20085;-84
2022/09/30 04:05:07;;;;;;;2.50;2.30;;;;;;;;;;5027410;28;20400;-83
2022/09/30 04:07:37;;;;;;;2.72;2.60;;;;;;;;;;5046644;28;20046;-84
2022/09/30 04:10:03;;;;;;;2.65;2.45;;;;;;;;;;5048676;28;20041;-84
2022/09/30 04:12:29;;;;;;;2.72;2.50;;;;;;;;;;5048831;28;20045;-84
2022/09/30 04:14:55;;;;;;;2.67;2.38;;;;;;;;;;5039308;28;20049;-84
2022/09/30 04:17:21;;;;;;;2.45;2.25;;;;;;;;;;5051036;28;20048;-84
2022/09/30 04:19:48;;;;;;;2.40;2.30;;;;;;;;;;5029472;28;20507;-83
2022/09/30 04:22:15;;;;;;;2.60;2.40;;;;;;;;;;5051603;28;20473;-83
2022/09/30 04:24:42;;;;;;;2.50;2.40;;;;;;;;;;5023007;28;20042;-83
2022/09/30 04:27:08;;;;;;;2.55;2.35;;;;;;;;;;5048807;28;20485;-84
2022/09/30 04:29:34;;;;;;;2.88;2.50;;;;;;;;;;5047367;28;20043;-83
2022/09/30 04:32:00;;;;;;;2.60;2.40;;;;;;;;;;5031651;28;20045;-83
2022/09/30 04:34:26;;;;;;;2.90;2.70;;;;;;;;;;5049208;28;20041;-83
2022/09/30 04:36:52;;;;;;;3.40;2.97;;;;;;;;;;5048130;28;20048;-83
2022/09/30 04:39:18;;;;;;;2.90;2.70;;;;;;;;;;5042292;28;20045;-84
2022/09/30 04:41:45;;;;;;;2.85;2.65;;;;;;;;;;5044405;28;20045;-83
2022/09/30 04:44:14;;;;;;;2.80;2.60;;;;;;;;;;5030319;28;20099;-83
2022/09/30 04:46:42;;;;;;;3.25;2.95;;;;;;;;;;5027340;28;20087;-83
2022/09/30 04:49:10;;;;;;;3.08;2.88;;;;;;;;;;5036552;28;20052;-83
2022/09/30 04:51:37;;;;;;;2.90;2.70;;;;;;;;;;5029386;28;20037;-83
2022/09/30 04:54:03;;;;;;;2.80;2.60;;;;;;;;;;5022836;28;20115;-83
2022/09/30 04:56:29;;;;;;;2.90;2.70;;;;;;;;;;5016779;28;20084;-83
2022/09/30 04:58:56;;;;;;;3.13;2.80;;;;;;;;;;5045624;28;20048;-83
2022/09/30 05:01:22;;;;;;;2.88;2.63;;;;;;;;;;5026497;28;20499;-83
2022/09/30 05:03:49;;;;;;;2.67;2.47;;;;;;;;;;5029718;28;20411;-83
2022/09/30 05:06:15;;;;;;;2.95;2.65;;;;;;;;;;5033010;28;20060;-83
2022/09/30 05:08:44;;;;;;;2.78;2.58;;;;;;;;;;5029462;28;20057;-84
2022/09/30 05:11:13;;;;;;;2.70;2.50;;;;;;;;;;5042595;28;20044;-83
2022/09/30 05:13:40;;;;;;;2.80;2.60;;;;;;;;;;5053481;28;20045;-83
2022/09/30 05:16:07;;;;;;;3.60;3.28;;;;;;;;;;5033600;28;20041;-82
2022/09/30 05:18:33;;;;;;;5.28;4.20;;;;;;;;;;5049506;28;20048;-83
2022/09/30 05:21:00;;;;;;;11.98;8.10;;;;;;;;;;5047216;28;20041;-82
2022/09/30 05:23:27;;;;;;;10.15;6.57;;;;;;;;;;5033651;28;20053;-83
2022/09/30 05:25:53;;;;;;;6.35;4.53;;;;;;;;;;5048867;28;20051;-82
2022/09/30 05:28:19;;;;;;;4.20;3.80;;;;;;;;;;5048229;28;20041;-83
2022/09/30 05:30:46;;;;;;;5.38;3.13;;;;;;;;;;5044461;28;20475;-83
2022/09/30 05:33:12;;;;;;;3.65;3.35;;;;;;;;;;5045138;28;20123;-83
2022/09/30 05:35:42;;;;;;;3.08;2.78;;;;;;;;;;5028013;28;20048;-83
2022/09/30 05:38:09;;;;;;;4.20;2.80;;;;;;;;;;5047768;28;20128;-82
2022/09/30 05:40:38;;;;;;;2.90;2.70;;;;;;;;;;5041855;28;20044;-82
2022/09/30 05:43:05;;;;;;;3.00;2.70;;;;;;;;;;5053260;28;20468;-83
2022/09/30 05:45:31;;;;;;;3.75;3.45;;;;;;;;;;5042115;28;20049;-82
2022/09/30 05:47:57;;;;;;;11.85;8.20;;;;;;;;;;5026924;28;20053;-82
2022/09/30 05:50:24;;;;;;;7.50;4.50;;;;;;;;;;5031921;28;20044;-82
2022/09/30 05:52:50;;;;;;;4.80;4.13;;;;;;;;;;5035527;28;20053;-81
2022/09/30 05:55:17;;;;;;;3.67;3.38;;;;;;;;;;5033335;28;20122;-81
2022/09/30 05:57:45;;;;;;;3.08;2.78;;;;;;;;;;5043986;28;20139;-82
2022/09/30 06:00:11;;;;;;;3.35;2.80;;;;;;;;;;5016869;28;20397;-83
2022/09/30 06:02:37;;;;;;;3.53;2.78;;;;;;;;;;5051308;28;20037;-82
2022/09/30 06:05:05;;;;;;;2.80;2.50;;;;;;;;;;5034783;28;20148;-82
2022/09/30 06:07:31;;;;;;;3.00;2.70;;;;;;;;;;5050291;28;20410;-82
2022/09/30 06:09:57;;;;;;;3.25;2.95;;;;;;;;;;5052562;28;20087;-82
2022/09/30 06:12:26;;;;;;;2.88;2.67;;;;;;;;;;5034926;28;20163;-81
2022/09/30 06:14:52;;;;;;;3.65;2.88;;;;;;;;;;5045668;28;20505;-83
2022/09/30 06:17:18;;;;;;;23.10;21.45;;;;;;;;;;5033727;28;20102;-83
2022/09/30 06:19:44;;;;;;;6.68;5.95;;;;;;;;;;5031953;28;20175;-84
2022/09/30 06:22:10;;;;;;;4.03;3.10;;;;;;;;;;5053459;28;20041;-83
2022/09/30 06:24:40;;;;;;;3.30;3.10;;;;;;;;;;5052209;28;20095;-83
2022/09/30 06:27:06;;;;;;;4.50;3.15;;;;;;;;;;5048833;28;20045;-83
2022/09/30 06:29:32;;;;;;;5.40;3.13;;;;;;;;;;5061401;28;20404;-82
2022/09/30 06:31:58;;;;;;;3.40;3.10;;;;;;;;;;5035833;28;20041;-83
2022/09/30 06:34:24;;;;;;;3.90;2.92;;;;;;;;;;5052213;28;20059;-82
2022/09/30 06:36:50;;;;;;;3.40;3.05;;;;;;;;;;5049311;28;20045;-82
2022/09/30 06:39:16;;;;;;;3.88;3.20;;;;;;;;;;5035869;28;20052;-82
2022/09/30 06:41:42;;;;;;;3.72;3.30;;;;;;;;;;5068336;28;20099;-83
2022/09/30 06:44:09;;;;;;;3.45;3.00;;;;;;;;;;5057262;28;20131;-83
2022/09/30 06:46:35;;;;;;;4.47;3.58;;;;;;;;;;5026764;28;20116;-83
2022/09/30 06:49:01;;;;;;;4.18;3.78;;;;;;;;;;5035044;28;20053;-83
2022/09/30 06:51:31;;;;;;;3.60;3.30;;;;;;;;;;5050479;28;20052;-84
2022/09/30 06:54:00;;;;;;;3.20;2.88;;;;;;;;;;5048076;28;20574;-83
2022/09/30 06:56:27;;;;;;;4.55;3.00;;;;;;;;;;5072687;28;20040;-83
2022/09/30 06:58:53;;;;;;;3.10;2.80;;;;;;;;;;5045720;28;20451;-83
2022/09/30 07:01:20;;;;;;;3.08;2.78;;;;;;;;;;5047726;28;20489;-83
2022/09/30 07:03:46;;;;;;;3.40;3.10;;;;;;;;;;5026601;28;20128;-83
2022/09/30 07:06:14;;;;;;;3.03;2.75;;;;;;;;;;5039073;28;20040;-83
2022/09/30 07:08:43;;;;;;;3.28;2.90;;;;;;;;;;5052236;28;20052;-83
2022/09/30 07:11:15;;;;;;;3.58;3.03;;;;;;;;;;5031548;28;20551;-83
2022/09/30 07:13:42;;;;;;;3.83;2.90;;;;;;;;;;5051576;28;20060;-83
2022/09/30 07:16:10;;;;;;;5.15;3.55;;;;;;;;;;5031920;28;20045;-83
2022/09/30 07:18:36;;;;;;;5.32;3.38;;;;;;;;;;5067124;28;20507;-83
2022/09/30 07:21:03;;;;;;;4.32;3.42;;;;;;;;;;5057146;28;20041;-83
2022/09/30 07:23:29;;;;;;;3.05;2.85;;;;;;;;;;5050202;28;20137;-83
2022/09/30 07:25:56;;;;;;;3.80;3.05;;;;;;;;;;5033025;28;20048;-84
2022/09/30 07:28:31;;;;;;;3.20;2.90;;;;;;;;;;5034944;28;20484;-84
2022/09/30 07:30:58;;;;;;;3.55;3.05;;;;;;;;;;5050102;28;20060;-83
2022/09/30 07:33:25;;;;;;;4.35;3.08;;;;;;;;;;5039392;28;20053;-83
2022/09/30 07:35:55;;;;;;;3.40;2.83;;;;;;;;;;5034344;28;20041;-83
2022/09/30 07:38:23;;;;;;;3.60;3.30;;;;;;;;;;5062783;28;20564;-83
2022/09/30 07:41:15;;;;;;;3.40;3.10;;;;;;;;;;5068604;28;20059;-83
2022/09/30 07:43:45;;;;;;;4.70;3.35;;;;;;;;;;5027530;28;20057;-84
2022/09/30 07:46:23;;;;;;;4.15;3.30;;;;;;;;;;5040915;28;20051;-84
2022/09/30 07:48:51;;;;;;;4.13;3.78;;;;;;;;;;5034705;28;20095;-84
2022/09/30 07:51:23;;;;;;;6.53;3.50;;;;;;;;;;5022500;28;20033;-83
2022/09/30 07:53:51;;;;;;;3.95;3.45;;;;;;;;;;5033600;28;20468;-83
2022/09/30 07:56:17;;;;;;;3.70;3.40;;;;;;;;;;5027148;28;20429;-83
2022/09/30 07:58:44;;;;;;;4.18;3.60;;;;;;;;;;5055235;28;20107;-83
2022/09/30 08:01:11;;;;;;;3.20;2.95;;;;;;;;;;5051566;28;20045;-84
2022/09/30 08:03:40;;;;;;;3.45;3.15;;;;;;;;;;5039878;28;20055;-84
2022/09/30 08:06:07;;;;;;;3.38;3.08;;;;;;;;;;5046179;28;20044;-83
2022/09/30 08:08:34;;;;;;;3.95;3.40;;;;;;;;;;5051682;28;20052;-84
2022/09/30 08:11:01;;;;;;;3.20;3.00;;;;;;;;;;5050859;28;20037;-84
2022/09/30 08:13:27;;;;;;;3.63;3.33;;;;;;;;;;5048117;28;20106;-84
2022/09/30 08:15:53;;;;;;;5.50;3.40;;;;;;;;;;5050651;28;20051;-84
2022/09/30 08:18:19;;;;;;;4.15;3.30;;;;;;;;;;5069011;28;20144;-84
2022/09/30 08:20:45;;;;;;;3.50;3.17;;;;;;;;;;5051832;28;20044;-83
2022/09/30 08:23:13;;;;;;;4.47;3.25;;;;;;;;;;5065472;28;20062;-84
2022/09/30 08:25:39;;;;;;;4.38;3.00;;;;;;;;;;5066542;28;20068;-84
2022/09/30 08:28:05;;;;;;;2.60;2.15;;;;;;;;;;5040572;28;20091;-83
2022/09/30 08:30:34;;;;;;;2.22;2.13;;;;;;;;;;5051412;28;20045;-84
2022/09/30 08:33:00;;;;;;;2.13;2.03;;;;;;;;;;5049820;28;20147;-83
2022/09/30 08:35:26;;;;;;;2.38;2.13;;;;;;;;;;5047874;28;20551;-83
2022/09/30 08:37:53;;;;;;;1.95;1.85;;;;;;;;;;5031356;28;20049;-85
2022/09/30 08:40:22;;;;;;;2.38;2.13;;;;;;;;;;5037396;28;20056;-84
2022/09/30 08:43:02;;;;;;;2.50;2.30;;;;;;;;;;5059451;28;20519;-84
2022/09/30 08:45:34;;;;;;;2.50;2.30;;;;;;;;;;5072255;28;20054;-84
2022/09/30 08:48:12;;;;;;;1.80;1.70;;;;;;;;;;5059550;28;20041;-84
2022/09/30 08:50:48;;;;;;;1.95;1.85;;;;;;;;;;5031434;28;20042;-84
2022/09/30 08:53:33;;;;;;;2.53;1.95;;;;;;;;;;5036459;28;20511;-83
2022/09/30 08:56:01;;;;;;;2.40;2.20;;;;;;;;;;5075749;28;20554;-85
2022/09/30 08:58:31;;;;;;;2.47;2.28;;;;;;;;;;5054827;28;20040;-84
2022/09/30 09:01:00;;;;;;;3.03;2.70;;;;;;;;;;5059552;28;20045;-83
2022/09/30 09:03:28;;;;;;;3.35;2.72;;;;;;;;;;5030441;28;20470;-84
2022/09/30 09:06:08;;;;;;;2.60;2.40;;;;;;;;;;5055644;28;20049;-84
2022/09/30 09:08:48;;;;;;;3.00;2.10;;;;;;;;;;5031000;28;20546;-83
2022/09/30 09:11:33;;;;;;;2.97;2.50;;;;;;;;;;5017386;28;20049;-84
2022/09/30 09:14:03;;;;;;;4.15;2.20;;;;;;;;;;5051806;28;20045;-84
2022/09/30 09:16:36;;;;;;;2.70;2.50;;;;;;;;;;5051687;28;20076;-86
2022/09/30 09:19:02;;;;;;;2.70;2.15;;;;;;;;;;5050774;28;20060;-86
2022/09/30 09:21:50;;;;;;;2.90;2.70;;;;;;;;;;5073617;28;20044;-86
2022/09/30 09:24:20;;;;;;;2.70;2.33;;;;;;;;;;5035982;28;20382;-85
2022/09/30 09:26:47;;;;;;;2.40;2.20;;;;;;;;;;5025166;28;20825;-85
2022/09/30 09:29:36;;;;;;;3.00;2.35;;;;;;;;;;5053635;28;20037;-84
2022/09/30 09:32:06;;;;;;;2.22;2.00;;;;;;;;;;5057777;28;20143;-84
2022/09/30 09:34:32;;;;;;;1.80;1.52;;;;;;;;;;5049376;28;20424;-84
2022/09/30 09:37:06;;;;;;;2.08;1.58;;;;;;;;;;5073822;28;20041;-86
2022/09/30 09:39:50;;;;;;;1.65;1.30;;;;;;;;;;5050413;28;20124;-85
2022/09/30 09:42:16;;;;;;;1.60;1.50;;;;;;;;;;5053513;28;20123;-85
2022/09/30 09:44:48;;;;;;;3.92;1.80;;;;;;;;;;5046123;28;20046;-87
2022/09/30 09:47:15;;;;;;;2.63;1.85;;;;;;;;;;5034886;28;20090;-85
2022/09/30 09:49:46;;;;;;;1.75;1.60;;;;;;;;;;5060844;28;20056;-85
2022/09/30 09:52:11;;;;;;;1.90;1.75;;;;;;;;;;5054780;28;20045;-86
2022/09/30 09:54:49;;;;;;;69.47;5.75;;;;;;;;;;5056367;28;20085;-83
2022/09/30 09:57:30;;;;;;;3.08;2.03;;;;;;;;;;5052323;28;20059;-87
2022/09/30 09:59:58;;;;;;;3.85;2.17;;;;;;;;;;5033622;28;20493;-85
2022/09/30 10:02:27;;;;;;;4.00;3.03;;;;;;;;;;5062197;28;20116;-85
2022/09/30 10:05:00;;;;;;;4.50;3.17;;;;;;;;;;5071577;28;20040;-85
2022/09/30 10:07:33;;;;;;;6.85;4.22;;;;;;;;;;5058298;28;20404;-86
2022/09/30 10:10:16;;;;;;;3.92;3.53;;;;;;;;;;5066876;28;20377;-85
2022/09/30 10:12:42;;;;;;;4.03;3.63;;;;;;;;;;5035404;28;20127;-86
2022/09/30 10:15:19;;;;;;;4.68;3.83;;;;;;;;;;5056124;28;20045;-83
2022/09/30 10:17:50;;;;;;;5.97;3.88;;;;;;;;;;5047816;28;20060;-86
2022/09/30 10:20:16;;;;;;;5.88;3.92;;;;;;;;;;5053015;28;20045;-86
2022/09/30 10:22:42;;;;;;;4.03;3.50;;;;;;;;;;5053787;28;20440;-86
2022/09/30 10:25:14;;;;;;;3.65;3.35;;;;;;;;;;5041776;28;20045;-85
2022/09/30 10:27:47;;;;;;;3.67;3.35;;;;;;;;;;5035464;28;20504;-86
2022/09/30 10:30:29;;;;;;;3.85;3.55;;;;;;;;;;5052703;28;20091;-87
2022/09/30 10:32:55;;;;;;;3.95;3.60;;;;;;;;;;5038112;28;20080;-85
2022/09/30 10:35:22;;;;;;;4.43;3.42;;;;;;;;;;5051043;28;20503;-86
2022/09/30 10:37:52;;;;;;;4.32;3.92;;;;;;;;;;5030808;28;20040;-85
2022/09/30 10:40:21;;;;;;;4.00;3.60;;;;;;;;;;5050593;28;20045;-86
2022/09/30 10:42:47;;;;;;;3.78;3.47;;;;;;;;;;5041736;28;20051;-85
2022/09/30 10:45:22;;;;;;;4.93;3.38;;;;;;;;;;5057750;28;20144;-86
2022/09/30 10:47:50;;;;;;;4.95;3.97;;;;;;;;;;5051025;28;20049;-86
2022/09/30 10:50:19;;;;;;;6.13;4.63;;;;;;;;;;5035489;28;20056;-85
2022/09/30 10:52:54;;;;;;;6.05;4.57;;;;;;;;;;5036803;28;20052;-85
2022/09/30 10:55:23;;;;;;;4.78;4.10;;;;;;;;;;5027846;28;20133;-85
2022/09/30 10:57:51;;;;;;;4.80;4.30;;;;;;;;;;5033378;28;20052;-85
2022/09/30 11:00:22;;;;;;;4.85;3.65;;;;;;;;;;5015948;28;20045;-84
2022/09/30 11:03:00;;;;;;;3.92;3.50;;;;;;;;;;5037930;28;20084;-84
2022/09/30 11:05:29;;;;;;;4.47;4.07;;;;;;;;;;5058035;28;20113;-84
2022/09/30 11:08:08;;;;;;;4.20;3.72;;;;;;;;;;5038788;28;20033;-84
2022/09/30 11:10:42;;;;;;;4.00;3.65;;;;;;;;;;5022371;28;20139;-83
2022/09/30 11:13:23;;;;;;;3.28;2.97;;;;;;;;;;5030579;28;20247;-83
2022/09/30 11:15:55;;;;;;;3.53;2.88;;;;;;;;;;5046716;28;20040;-86
2022/09/30 11:18:25;;;;;;;2.78;2.58;;;;;;;;;;5033710;28;20071;-86
2022/09/30 11:20:58;;;;;;;3.05;2.83;;;;;;;;;;5046491;28;20044;-86
2022/09/30 11:23:30;;;;;;;2.95;2.72;;;;;;;;;;5067740;28;20093;-88
2022/09/30 11:25:56;;;;;;;3.33;3.03;;;;;;;;;;5036157;28;20049;-85
2022/09/30 11:28:31;;;;;;;3.10;2.67;;;;;;;;;;5048959;28;20094;-86
2022/09/30 11:31:20;;;;;;;3.75;2.90;;;;;;;;;;5053364;28;20037;-86
2022/09/30 11:33:49;;;;;;;4.20;2.70;;;;;;;;;;5063702;28;20049;-85
2022/09/30 11:36:33;;;;;;;3.28;2.60;;;;;;;;;;5032516;28;20049;-86
2022/09/30 11:39:18;;;;;;;2.65;2.45;;;;;;;;;;5052103;28;20051;-85
2022/09/30 11:41:55;;;;;;;2.30;2.15;;;;;;;;;;5018333;28;20057;-86
2022/09/30 11:44:27;;;;;;;2.00;1.90;;;;;;;;;;5068318;28;20519;-86
2022/09/30 11:47:13;;;;;;;2.13;1.90;;;;;;;;;;5072701;28;20044;-85
2022/09/30 11:49:42;;;;;;;2.10;2.00;;;;;;;;;;5017593;28;20056;-84
2022/09/30 11:52:15;;;;;;;1.95;1.85;;;;;;;;;;5043719;28;20041;-87
2022/09/30 11:54:44;;;;;;;2.45;1.90;;;;;;;;;;5071013;28;20045;-84
2022/09/30 11:57:13;;;;;;;2.20;2.00;;;;;;;;;;5058328;28;20425;-84
2022/09/30 11:59:45;;;;;;;1.75;1.65;;;;;;;;;;5053590;28;20044;-84
2022/09/30 12:02:19;;;;;;;1.90;1.80;;;;;;;;;;5065841;28;20040;-85
2022/09/30 12:04:46;;;;;;;1.70;1.60;;;;;;;;;;5017087;28;20142;-88
2022/09/30 12:07:27;;;;;;;1.63;1.52;;;;;;;;;;5051429;28;20060;-85
2022/09/30 12:09:57;;;;;;;2.22;1.88;;;;;;;;;;5034669;28;20040;-86
2022/09/30 12:12:26;;;;;;;2.03;1.60;;;;;;;;;;5065085;28;20040;-86
2022/09/30 12:15:04;;;;;;;1.60;1.50;;;;;;;;;;5068488;28;20105;-86
2022/09/30 12:17:36;;;;;;;1.55;1.48;;;;;;;;;;5050955;28;20049;-85
2022/09/30 12:20:24;;;;;;;1.58;1.10;;;;;;;;;;5033704;28;20055;-85
2022/09/30 12:22:51;;;;;;;1.45;1.35;;;;;;;;;;5050369;28;20049;-85
2022/09/30 12:25:24;;;;;;;2.28;1.90;;;;;;;;;;5056721;28;20056;-86
2022/09/30 12:27:54;;;;;;;1.53;1.43;;;;;;;;;;5028567;28;20084;-87
2022/09/30 12:30:21;;;;;;;1.90;1.60;;;;;;;;;;5037998;28;20044;-87
2022/09/30 12:32:48;;;;;;;1.73;1.63;;;;;;;;;;5048418;28;20460;-86
2022/09/30 12:35:44;;;;;;;2.45;2.05;;;;;;;;;;5051853;28;20058;-85
2022/09/30 12:38:18;;;;;;;2.08;1.90;;;;;;;;;;5021992;28;20053;-84
2022/09/30 12:40:47;;;;;;;4.00;2.85;;;;;;;;;;5037926;28;20041;-86
2022/09/30 12:43:16;;;;;;;3.40;3.10;;;;;;;;;;5020034;28;20065;-86
2022/09/30 12:46:01;;;;;;;3.63;3.00;;;;;;;;;;5034924;28;20045;-85
2022/09/30 12:48:33;;;;;;;3.10;2.90;;;;;;;;;;5018833;28;20485;-86
2022/09/30 12:50:59;;;;;;;3.33;3.03;;;;;;;;;;5046124;28;20048;-86
2022/09/30 12:53:28;;;;;;;3.00;2.80;;;;;;;;;;5013045;28;20057;-85
2022/09/30 12:55:54;;;;;;;5.03;3.40;;;;;;;;;;5050131;28;20037;-85
2022/09/30 12:58:23;;;;;;;4.18;3.38;;;;;;;;;;5047811;28;20180;-85
2022/09/30 13:01:18;;;;;;;3.35;3.05;;;;;;;;;;5019797;28;20040;-86
2022/09/30 13:03:50;;;;;;;3.90;3.55;;;;;;;;;;5028458;28;20064;-86
2022/09/30 13:06:17;;;;;;;3.92;3.63;;;;;;;;;;5028014;28;20400;-86
2022/09/30 13:08:45;;;;;;;5.00;3.95;;;;;;;;;;5041415;28;20077;-86
2022/09/30 13:11:30;;;;;;;5.63;4.35;;;;;;;;;;5025116;28;20045;-86
2022/09/30 13:13:59;;;;;;;6.72;4.82;;;;;;;;;;5030923;28;20077;-87
2022/09/30 13:16:46;;;;;;;7.85;5.55;;;;;;;;;;5029768;28;20045;-86
2022/09/30 13:19:20;;;;;;;7.60;6.18;;;;;;;;;;5020338;28;20049;-87
2022/09/30 13:21:46;;;;;;;6.03;5.43;;;;;;;;;;5025617;28;20076;-87
2022/09/30 13:24:15;;;;;;;6.68;4.65;;;;;;;;;;5037347;28;20041;-85
2022/09/30 13:26:45;;;;;;;4.55;4.13;;;;;;;;;;5054133;28;20049;-87
2022/09/30 13:29:15;;;;;;;4.28;3.88;;;;;;;;;;5016963;28;20050;-88
2022/09/30 13:31:50;;;;;;;3.60;3.30;;;;;;;;;;5039688;28;20057;-88
2022/09/30 13:34:29;;;;;;;4.43;3.30;;;;;;;;;;5019917;28;20351;-87
2022/09/30 13:37:00;;;;;;;3.10;2.90;;;;;;;;;;5047298;28;20052;-87
2022/09/30 13:39:29;;;;;;;2.90;2.70;;;;;;;;;;5054026;28;20092;-87
2022/09/30 13:41:55;;;;;;;2.38;2.20;;;;;;;;;;5062966;28;20677;-88
2022/09/30 13:44:25;;;;;;;2.53;2.33;;;;;;;;;;5066271;28;20500;-87
2022/09/30 13:46:54;;;;;;;2.10;2.00;;;;;;;;;;5022320;28;20037;-88
2022/09/30 13:49:35;;;;;;;3.53;1.73;;;;;;;;;;5024368;28;20053;-86
2022/09/30 13:52:02;;;;;;;1.85;1.75;;;;;;;;;;5055093;28;20432;-88
2022/09/30 13:54:44;;;;;;;2.03;1.92;;;;;;;;;;5055783;28;20127;-86
2022/09/30 13:57:15;;;;;;;2.00;1.70;;;;;;;;;;5034600;28;20053;-87
2022/09/30 13:59:44;;;;;;;3.72;1.73;;;;;;;;;;5037379;28;20480;-85
2022/09/30 14:02:19;;;;;;;1.73;1.60;;;;;;;;;;5045018;28;20045;-87
2022/09/30 14:05:03;;;;;;;1.70;1.60;;;;;;;;;;5039170;28;20048;-87
2022/09/30 14:07:35;;;;;;;1.63;1.52;;;;;;;;;;5036077;28;20184;-88
2022/09/30 14:10:17;;;;;;;2.17;1.20;;;;;;;;;;5053838;28;20048;-88
2022/09/30 14:13:01;;;;;;;1.95;1.40;;;;;;;;;;5058985;28;20052;-89
2022/09/30 14:15:55;;;;;;;2.88;1.52;;;;;;;;;;5053354;28;20048;-88
2022/09/30 14:18:28;;;;;;;2.03;1.80;;;;;;;;;;5027316;28;20056;-88
2022/09/30 14:21:00;;;;;;;1.48;1.38;;;;;;;;;;5026824;28;20057;-89
2022/09/30 14:23:32;;;;;;;2.15;1.58;;;;;;;;;;5035717;28;20081;-86
2022/09/30 14:26:08;;;;;;;2.05;1.50;;;;;;;;;;5033901;28;20079;-89
2022/09/30 14:28:38;;;;;;;2.00;1.60;;;;;;;;;;5035324;28;20056;-88
2022/09/30 14:31:07;;;;;;;1.45;1.42;;;;;;;;;;5034919;28;20145;-87
2022/09/30 14:33:33;;;;;;;2.67;1.70;;;;;;;;;;5031841;28;20040;-86
2022/09/30 14:36:00;;;;;;;1.38;1.38;;;;;;;;;;5069281;28;20091;-87
2022/09/30 14:38:28;;;;;;;1.60;1.50;;;;;;;;;;5065639;28;20049;-88
2022/09/30 14:40:56;;;;;;;1.60;1.50;;;;;;;;;;5066848;28;20036;-86
2022/09/30 14:43:34;;;;;;;2.17;1.30;;;;;;;;;;5037909;28;20106;-86
2022/09/30 14:46:08;;;;;;;2.35;1.50;;;;;;;;;;5058687;28;20049;-90
2022/09/30 14:48:36;;;;;;;3.60;1.63;;;;;;;;;;5034823;28;20040;-87
2022/09/30 14:51:03;;;;;;;1.50;1.40;;;;;;;;;;5035741;28;20099;-88
2022/09/30 14:53:29;;;;;;;2.20;1.80;;;;;;;;;;5041131;28;20071;-87
2022/09/30 14:55:56;;;;;;;3.17;1.75;;;;;;;;;;5047049;28;20508;-84
2022/09/30 14:58:30;;;;;;;2.28;1.60;;;;;;;;;;5036656;28;20048;-84
2022/09/30 15:00:59;;;;;;;1.60;1.50;;;;;;;;;;5052773;28;20048;-85
2022/09/30 15:03:25;;;;;;;1.83;1.48;;;;;;;;;;5039991;28;20049;-85